sensor_id;sensor_type;location;lat;lon;timestamp;temperature;humidity
49549;DHT22;35450;44.518;7.466;2023-05-29T00:01:19;18.60;99.90
49549;DHT22;35450;44.518;7.466;2023-05-29T00:04:24;18.60;99.90
49549;DHT22;35450;44.518;7.466;2023-05-29T00:07:29;18.60;99.90
49549;DHT22;35450;44.518;7.466;2023-05-29T00:10:34;18.50;99.90
49549;DHT22;35450;44.518;7.466;2023-05-29T00:13:38;18.40;99.90
49549;DHT22;35450;44.518;7.466;2023-05-29T00:16:43;18.30;99.90
49549;DHT22;35450;44.518;7.466;2023-05-29T00:19:47;18.30;99.90
49549;DHT22;35450;44.518;7.466;2023-05-29T00:22:51;18.20;99.90
49549;DHT22;35450;44.518;7.466;2023-05-29T00:25:55;18.10;99.90
49549;DHT22;35450;44.518;7.466;2023-05-29T00:28:59;18.10;99.90
49549;DHT22;35450;44.518;7.466;2023-05-29T00:32:06;18.00;99.90
49549;DHT22;35450;44.518;7.466;2023-05-29T00:35:10;18.00;99.90
49549;DHT22;35450;44.518;7.466;2023-05-29T00:38:14;18.10;99.90
49549;DHT22;35450;44.518;7.466;2023-05-29T00:41:18;18.10;99.90
49549;DHT22;35450;44.518;7.466;2023-05-29T00:44:22;18.20;99.90
49549;DHT22;35450;44.518;7.466;2023-05-29T00:47:27;18.20;99.90
49549;DHT22;35450;44.518;7.466;2023-05-29T00:50:32;18.10;99.90
49549;DHT22;35450;44.518;7.466;2023-05-29T00:53:36;18.20;99.90
49549;DHT22;35450;44.518;7.466;2023-05-29T00:56:40;18.30;99.90
49549;DHT22;35450;44.518;7.466;2023-05-29T00:59:47;18.30;99.90
49549;DHT22;35450;44.518;7.466;2023-05-29T01:02:52;18.30;99.90
49549;DHT22;35450;44.518;7.466;2023-05-29T01:05:56;18.40;99.90
49549;DHT22;35450;44.518;7.466;2023-05-29T01:09:01;18.40;99.90
49549;DHT22;35450;44.518;7.466;2023-05-29T01:12:33;18.40;99.90
49549;DHT22;35450;44.518;7.466;2023-05-29T01:15:58;18.40;99.90
49549;DHT22;35450;44.518;7.466;2023-05-29T01:29:18;18.30;99.90
49549;DHT22;35450;44.518;7.466;2023-05-29T01:32:24;18.40;99.90
49549;DHT22;35450;44.518;7.466;2023-05-29T01:35:29;18.20;99.90
49549;DHT22;35450;44.518;7.466;2023-05-29T01:38:33;18.30;99.90
49549;DHT22;35450;44.518;7.466;2023-05-29T01:41:37;18.40;99.90
49549;DHT22;35450;44.518;7.466;2023-05-29T01:44:43;18.20;99.90
49549;DHT22;35450;44.518;7.466;2023-05-29T01:47:48;18.20;99.90
49549;DHT22;35450;44.518;7.466;2023-05-29T01:50:52;18.20;99.90
49549;DHT22;35450;44.518;7.466;2023-05-29T01:53:58;18.00;99.90
49549;DHT22;35450;44.518;7.466;2023-05-29T01:57:05;17.90;99.90
49549;DHT22;35450;44.518;7.466;2023-05-29T02:00:10;17.80;99.90
49549;DHT22;35450;44.518;7.466;2023-05-29T02:03:20;17.60;99.90
49549;DHT22;35450;44.518;7.466;2023-05-29T02:06:24;17.40;99.90
49549;DHT22;35450;44.518;7.466;2023-05-29T02:09:29;17.30;99.90
49549;DHT22;35450;44.518;7.466;2023-05-29T02:12:34;17.40;99.90
49549;DHT22;35450;44.518;7.466;2023-05-29T02:15:39;17.20;99.90
49549;DHT22;35450;44.518;7.466;2023-05-29T02:18:43;17.10;99.90
49549;DHT22;35450;44.518;7.466;2023-05-29T02:21:47;17.20;99.90
49549;DHT22;35450;44.518;7.466;2023-05-29T02:24:52;17.30;99.90
49549;DHT22;35450;44.518;7.466;2023-05-29T02:27:56;17.40;99.90
49549;DHT22;35450;44.518;7.466;2023-05-29T02:31:00;17.50;99.90
49549;DHT22;35450;44.518;7.466;2023-05-29T02:34:04;17.60;99.90
49549;DHT22;35450;44.518;7.466;2023-05-29T02:37:07;17.60;99.90
49549;DHT22;35450;44.518;7.466;2023-05-29T02:40:11;17.60;99.90
49549;DHT22;35450;44.518;7.466;2023-05-29T02:43:15;17.50;99.90
49549;DHT22;35450;44.518;7.466;2023-05-29T02:46:19;17.10;99.90
49549;DHT22;35450;44.518;7.466;2023-05-29T02:49:26;17.00;99.90
49549;DHT22;35450;44.518;7.466;2023-05-29T02:52:31;17.00;99.90
49549;DHT22;35450;44.518;7.466;2023-05-29T02:55:35;16.90;99.90
49549;DHT22;35450;44.518;7.466;2023-05-29T02:58:39;17.00;99.90
49549;DHT22;35450;44.518;7.466;2023-05-29T03:01:43;17.00;99.90
49549;DHT22;35450;44.518;7.466;2023-05-29T03:04:47;17.20;99.90
49549;DHT22;35450;44.518;7.466;2023-05-29T03:07:54;17.20;99.90
49549;DHT22;35450;44.518;7.466;2023-05-29T03:10:58;17.40;99.90
49549;DHT22;35450;44.518;7.466;2023-05-29T03:14:02;17.60;99.90
49549;DHT22;35450;44.518;7.466;2023-05-29T03:17:07;17.60;99.90
49549;DHT22;35450;44.518;7.466;2023-05-29T03:20:11;17.50;99.90
49549;DHT22;35450;44.518;7.466;2023-05-29T03:23:15;17.60;99.90
49549;DHT22;35450;44.518;7.466;2023-05-29T03:26:19;17.70;99.90
49549;DHT22;35450;44.518;7.466;2023-05-29T03:29:25;17.70;99.90
49549;DHT22;35450;44.518;7.466;2023-05-29T03:32:30;17.70;99.90
49549;DHT22;35450;44.518;7.466;2023-05-29T03:35:35;17.80;99.90
49549;DHT22;35450;44.518;7.466;2023-05-29T03:38:39;17.80;99.90
49549;DHT22;35450;44.518;7.466;2023-05-29T03:41:43;17.70;99.90
49549;DHT22;35450;44.518;7.466;2023-05-29T03:44:47;17.70;99.90
49549;DHT22;35450;44.518;7.466;2023-05-29T03:47:51;17.70;99.90
49549;DHT22;35450;44.518;7.466;2023-05-29T03:50:55;17.70;99.90
49549;DHT22;35450;44.518;7.466;2023-05-29T03:54:05;17.70;99.90
49549;DHT22;35450;44.518;7.466;2023-05-29T03:57:10;17.70;99.90
49549;DHT22;35450;44.518;7.466;2023-05-29T04:00:14;17.70;99.90
49549;DHT22;35450;44.518;7.466;2023-05-29T04:03:18;17.80;99.90
49549;DHT22;35450;44.518;7.466;2023-05-29T04:06:24;17.70;99.90
49549;DHT22;35450;44.518;7.466;2023-05-29T04:09:28;17.70;99.90
49549;DHT22;35450;44.518;7.466;2023-05-29T04:12:32;17.70;99.90
49549;DHT22;35450;44.518;7.466;2023-05-29T04:15:37;17.70;99.90
49549;DHT22;35450;44.518;7.466;2023-05-29T04:18:41;17.70;99.90
49549;DHT22;35450;44.518;7.466;2023-05-29T04:21:45;17.60;99.90
49549;DHT22;35450;44.518;7.466;2023-05-29T04:24:51;17.60;99.90
49549;DHT22;35450;44.518;7.466;2023-05-29T04:27:55;17.60;99.90
49549;DHT22;35450;44.518;7.466;2023-05-29T04:31:00;17.60;99.90
49549;DHT22;35450;44.518;7.466;2023-05-29T04:34:04;17.70;99.90
49549;DHT22;35450;44.518;7.466;2023-05-29T04:37:09;17.60;99.90
49549;DHT22;35450;44.518;7.466;2023-05-29T04:40:14;17.60;99.90
49549;DHT22;35450;44.518;7.466;2023-05-29T04:43:22;17.50;99.90
49549;DHT22;35450;44.518;7.466;2023-05-29T04:46:40;17.50;99.90
49549;DHT22;35450;44.518;7.466;2023-05-29T04:49:47;17.50;99.90
49549;DHT22;35450;44.518;7.466;2023-05-29T04:52:52;17.40;99.90
49549;DHT22;35450;44.518;7.466;2023-05-29T04:55:56;17.40;99.90
49549;DHT22;35450;44.518;7.466;2023-05-29T04:59:00;17.40;99.90
49549;DHT22;35450;44.518;7.466;2023-05-29T05:02:04;17.40;99.90
49549;DHT22;35450;44.518;7.466;2023-05-29T05:05:10;17.50;99.90
49549;DHT22;35450;44.518;7.466;2023-05-29T05:08:14;17.50;99.90
49549;DHT22;35450;44.518;7.466;2023-05-29T05:11:21;17.60;99.90
49549;DHT22;35450;44.518;7.466;2023-05-29T05:14:25;17.60;99.90
49549;DHT22;35450;44.518;7.466;2023-05-29T05:17:29;17.60;99.90
49549;DHT22;35450;44.518;7.466;2023-05-29T05:20:33;17.60;99.90
49549;DHT22;35450;44.518;7.466;2023-05-29T05:23:38;17.60;99.90
49549;DHT22;35450;44.518;7.466;2023-05-29T05:26:43;17.70;99.90
49549;DHT22;35450;44.518;7.466;2023-05-29T05:29:46;17.60;99.90
49549;DHT22;35450;44.518;7.466;2023-05-29T05:32:50;17.60;99.90
49549;DHT22;35450;44.518;7.466;2023-05-29T05:35:55;17.60;99.90
49549;DHT22;35450;44.518;7.466;2023-05-29T05:39:00;17.70;99.90
49549;DHT22;35450;44.518;7.466;2023-05-29T05:42:04;17.60;99.90
49549;DHT22;35450;44.518;7.466;2023-05-29T05:45:41;17.60;99.90
49549;DHT22;35450;44.518;7.466;2023-05-29T05:48:46;17.80;99.90
49549;DHT22;35450;44.518;7.466;2023-05-29T05:51:50;17.70;99.90
49549;DHT22;35450;44.518;7.466;2023-05-29T05:54:54;17.80;99.90
49549;DHT22;35450;44.518;7.466;2023-05-29T05:57:59;17.90;99.90
49549;DHT22;35450;44.518;7.466;2023-05-29T06:01:04;17.90;99.90
49549;DHT22;35450;44.518;7.466;2023-05-29T06:04:08;17.90;99.90
49549;DHT22;35450;44.518;7.466;2023-05-29T06:07:12;18.00;99.90
49549;DHT22;35450;44.518;7.466;2023-05-29T06:10:16;18.00;99.90
49549;DHT22;35450;44.518;7.466;2023-05-29T06:13:21;18.00;99.90
49549;DHT22;35450;44.518;7.466;2023-05-29T06:16:28;18.00;99.90
49549;DHT22;35450;44.518;7.466;2023-05-29T06:19:32;18.10;99.90
49549;DHT22;35450;44.518;7.466;2023-05-29T06:22:38;18.10;99.90
49549;DHT22;35450;44.518;7.466;2023-05-29T06:25:43;18.20;99.90
49549;DHT22;35450;44.518;7.466;2023-05-29T06:28:47;18.20;99.90
49549;DHT22;35450;44.518;7.466;2023-05-29T06:31:52;18.30;99.90
49549;DHT22;35450;44.518;7.466;2023-05-29T06:34:58;18.30;99.90
49549;DHT22;35450;44.518;7.466;2023-05-29T06:38:02;18.30;99.90
49549;DHT22;35450;44.518;7.466;2023-05-29T06:41:06;18.30;99.90
49549;DHT22;35450;44.518;7.466;2023-05-29T06:44:11;18.30;99.90
49549;DHT22;35450;44.518;7.466;2023-05-29T06:47:17;18.30;99.90
49549;DHT22;35450;44.518;7.466;2023-05-29T06:50:22;18.30;99.90
49549;DHT22;35450;44.518;7.466;2023-05-29T06:53:26;18.20;99.90
49549;DHT22;35450;44.518;7.466;2023-05-29T06:56:33;18.20;99.90
49549;DHT22;35450;44.518;7.466;2023-05-29T06:59:38;18.20;99.90
49549;DHT22;35450;44.518;7.466;2023-05-29T07:02:42;18.20;99.90
49549;DHT22;35450;44.518;7.466;2023-05-29T07:05:46;18.30;99.90
49549;DHT22;35450;44.518;7.466;2023-05-29T07:08:50;18.30;99.90
49549;DHT22;35450;44.518;7.466;2023-05-29T07:11:54;18.40;99.90
49549;DHT22;35450;44.518;7.466;2023-05-29T07:15:00;18.40;99.90
49549;DHT22;35450;44.518;7.466;2023-05-29T07:18:05;18.30;99.90
49549;DHT22;35450;44.518;7.466;2023-05-29T07:21:09;18.20;99.90
49549;DHT22;35450;44.518;7.466;2023-05-29T07:24:14;18.30;99.90
49549;DHT22;35450;44.518;7.466;2023-05-29T07:27:18;18.50;99.90
49549;DHT22;35450;44.518;7.466;2023-05-29T07:30:23;18.50;99.90
49549;DHT22;35450;44.518;7.466;2023-05-29T07:33:28;18.50;99.90
49549;DHT22;35450;44.518;7.466;2023-05-29T07:36:34;18.50;99.90
49549;DHT22;35450;44.518;7.466;2023-05-29T07:39:41;18.50;99.90
49549;DHT22;35450;44.518;7.466;2023-05-29T07:43:09;18.50;99.90
49549;DHT22;35450;44.518;7.466;2023-05-29T07:46:26;18.50;99.90
49549;DHT22;35450;44.518;7.466;2023-05-29T07:49:42;18.50;99.90
49549;DHT22;35450;44.518;7.466;2023-05-29T07:52:47;18.60;99.90
49549;DHT22;35450;44.518;7.466;2023-05-29T07:55:51;18.60;99.90
49549;DHT22;35450;44.518;7.466;2023-05-29T07:58:55;18.70;99.90
49549;DHT22;35450;44.518;7.466;2023-05-29T08:02:01;18.70;99.90
49549;DHT22;35450;44.518;7.466;2023-05-29T08:05:22;18.70;99.90
49549;DHT22;35450;44.518;7.466;2023-05-29T08:08:27;18.70;99.90
49549;DHT22;35450;44.518;7.466;2023-05-29T08:11:31;18.80;99.90
49549;DHT22;35450;44.518;7.466;2023-05-29T08:14:35;18.80;99.90
49549;DHT22;35450;44.518;7.466;2023-05-29T08:17:40;18.80;99.90
49549;DHT22;35450;44.518;7.466;2023-05-29T08:20:44;18.80;99.90
49549;DHT22;35450;44.518;7.466;2023-05-29T08:23:48;18.70;99.90
49549;DHT22;35450;44.518;7.466;2023-05-29T08:26:52;18.70;99.90
49549;DHT22;35450;44.518;7.466;2023-05-29T08:29:56;18.60;99.90
49549;DHT22;35450;44.518;7.466;2023-05-29T08:33:00;18.70;99.90
49549;DHT22;35450;44.518;7.466;2023-05-29T08:36:04;18.70;99.90
49549;DHT22;35450;44.518;7.466;2023-05-29T08:39:09;18.80;99.90
49549;DHT22;35450;44.518;7.466;2023-05-29T08:42:16;18.90;99.90
49549;DHT22;35450;44.518;7.466;2023-05-29T08:45:22;18.90;99.90
49549;DHT22;35450;44.518;7.466;2023-05-29T08:48:28;19.00;99.90
49549;DHT22;35450;44.518;7.466;2023-05-29T08:51:37;19.00;99.90
49549;DHT22;35450;44.518;7.466;2023-05-29T08:54:45;19.00;99.90
49549;DHT22;35450;44.518;7.466;2023-05-29T08:57:50;19.00;99.90
49549;DHT22;35450;44.518;7.466;2023-05-29T09:00:54;19.00;99.90
49549;DHT22;35450;44.518;7.466;2023-05-29T09:03:59;19.10;99.90
49549;DHT22;35450;44.518;7.466;2023-05-29T09:07:03;19.20;99.90
49549;DHT22;35450;44.518;7.466;2023-05-29T09:10:10;19.20;99.90
49549;DHT22;35450;44.518;7.466;2023-05-29T09:13:15;19.30;99.90
49549;DHT22;35450;44.518;7.466;2023-05-29T09:16:19;19.30;99.90
49549;DHT22;35450;44.518;7.466;2023-05-29T09:19:25;19.30;99.90
49549;DHT22;35450;44.518;7.466;2023-05-29T09:22:29;19.30;99.90
49549;DHT22;35450;44.518;7.466;2023-05-29T09:25:39;19.30;99.90
49549;DHT22;35450;44.518;7.466;2023-05-29T09:28:45;19.40;99.90
49549;DHT22;35450;44.518;7.466;2023-05-29T09:31:50;19.50;99.60
49549;DHT22;35450;44.518;7.466;2023-05-29T09:35:00;19.50;99.60
49549;DHT22;35450;44.518;7.466;2023-05-29T09:38:04;19.50;99.20
49549;DHT22;35450;44.518;7.466;2023-05-29T09:41:09;19.60;99.20
49549;DHT22;35450;44.518;7.466;2023-05-29T09:44:14;19.70;99.30
49549;DHT22;35450;44.518;7.466;2023-05-29T09:47:19;19.80;99.50
49549;DHT22;35450;44.518;7.466;2023-05-29T09:50:26;19.80;99.20
49549;DHT22;35450;44.518;7.466;2023-05-29T09:53:31;19.80;98.90
49549;DHT22;35450;44.518;7.466;2023-05-29T09:56:35;19.90;98.60
49549;DHT22;35450;44.518;7.466;2023-05-29T09:59:41;19.90;98.10
49549;DHT22;35450;44.518;7.466;2023-05-29T10:02:49;19.90;97.20
49549;DHT22;35450;44.518;7.466;2023-05-29T10:05:55;19.90;97.30
49549;DHT22;35450;44.518;7.466;2023-05-29T10:09:01;19.90;96.80
49549;DHT22;35450;44.518;7.466;2023-05-29T10:12:08;20.00;96.70
49549;DHT22;35450;44.518;7.466;2023-05-29T10:15:16;19.90;96.80
49549;DHT22;35450;44.518;7.466;2023-05-29T10:18:27;19.80;97.70
49549;DHT22;35450;44.518;7.466;2023-05-29T10:21:37;20.00;98.00
49549;DHT22;35450;44.518;7.466;2023-05-29T10:24:41;20.00;98.20
49549;DHT22;35450;44.518;7.466;2023-05-29T10:27:46;20.10;98.40
49549;DHT22;35450;44.518;7.466;2023-05-29T10:31:00;20.10;98.30
49549;DHT22;35450;44.518;7.466;2023-05-29T10:37:40;19.90;99.10
49549;DHT22;35450;44.518;7.466;2023-05-29T10:40:47;19.90;99.40
49549;DHT22;35450;44.518;7.466;2023-05-29T10:43:53;19.70;99.00
49549;DHT22;35450;44.518;7.466;2023-05-29T10:50:04;20.00;99.80
49549;DHT22;35450;44.518;7.466;2023-05-29T10:53:16;20.00;99.60
49549;DHT22;35450;44.518;7.466;2023-05-29T10:56:28;20.10;99.60
49549;DHT22;35450;44.518;7.466;2023-05-29T10:59:36;20.30;99.40
49549;DHT22;35450;44.518;7.466;2023-05-29T11:02:41;20.30;99.30
49549;DHT22;35450;44.518;7.466;2023-05-29T11:06:06;20.30;99.60
49549;DHT22;35450;44.518;7.466;2023-05-29T11:12:30;20.00;99.90
49549;DHT22;35450;44.518;7.466;2023-05-29T11:15:37;19.60;99.90
49549;DHT22;35450;44.518;7.466;2023-05-29T11:18:48;19.40;99.90
49549;DHT22;35450;44.518;7.466;2023-05-29T11:22:12;19.20;99.90
49549;DHT22;35450;44.518;7.466;2023-05-29T11:25:20;19.10;99.90
49549;DHT22;35450;44.518;7.466;2023-05-29T11:28:24;19.00;99.90
49549;DHT22;35450;44.518;7.466;2023-05-29T11:31:32;19.00;99.90
49549;DHT22;35450;44.518;7.466;2023-05-29T11:34:40;18.90;99.90
49549;DHT22;35450;44.518;7.466;2023-05-29T11:37:44;19.10;99.90
49549;DHT22;35450;44.518;7.466;2023-05-29T11:40:55;19.20;99.90
49549;DHT22;35450;44.518;7.466;2023-05-29T11:44:01;19.30;99.90
49549;DHT22;35450;44.518;7.466;2023-05-29T11:47:09;19.50;99.90
49549;DHT22;35450;44.518;7.466;2023-05-29T11:50:20;19.60;99.90
49549;DHT22;35450;44.518;7.466;2023-05-29T11:53:26;19.60;99.90
49549;DHT22;35450;44.518;7.466;2023-05-29T11:56:30;19.60;99.90
49549;DHT22;35450;44.518;7.466;2023-05-29T11:59:34;19.60;99.90
49549;DHT22;35450;44.518;7.466;2023-05-29T12:02:38;19.30;99.90
49549;DHT22;35450;44.518;7.466;2023-05-29T12:05:47;19.30;99.90
49549;DHT22;35450;44.518;7.466;2023-05-29T12:08:59;19.40;99.90
49549;DHT22;35450;44.518;7.466;2023-05-29T12:12:03;19.50;99.90
49549;DHT22;35450;44.518;7.466;2023-05-29T12:15:09;19.40;99.90
49549;DHT22;35450;44.518;7.466;2023-05-29T12:18:13;19.50;99.90
49549;DHT22;35450;44.518;7.466;2023-05-29T12:21:18;19.60;99.90
49549;DHT22;35450;44.518;7.466;2023-05-29T12:24:24;19.70;99.90
49549;DHT22;35450;44.518;7.466;2023-05-29T12:27:28;19.80;99.90
49549;DHT22;35450;44.518;7.466;2023-05-29T12:30:37;19.90;99.90
49549;DHT22;35450;44.518;7.466;2023-05-29T12:33:45;20.00;99.90
49549;DHT22;35450;44.518;7.466;2023-05-29T12:36:49;20.00;99.90
49549;DHT22;35450;44.518;7.466;2023-05-29T12:40:13;20.10;99.90
49549;DHT22;35450;44.518;7.466;2023-05-29T12:43:19;20.10;99.90
49549;DHT22;35450;44.518;7.466;2023-05-29T12:46:24;20.20;99.90
49549;DHT22;35450;44.518;7.466;2023-05-29T12:49:28;20.20;99.90
49549;DHT22;35450;44.518;7.466;2023-05-29T12:52:34;20.20;99.90
49549;DHT22;35450;44.518;7.466;2023-05-29T12:55:40;20.20;99.90
49549;DHT22;35450;44.518;7.466;2023-05-29T12:58:44;20.20;99.90
49549;DHT22;35450;44.518;7.466;2023-05-29T13:01:48;20.20;99.90
49549;DHT22;35450;44.518;7.466;2023-05-29T13:04:52;20.10;99.90
49549;DHT22;35450;44.518;7.466;2023-05-29T13:07:57;20.10;99.90
49549;DHT22;35450;44.518;7.466;2023-05-29T13:11:01;20.20;99.90
49549;DHT22;35450;44.518;7.466;2023-05-29T13:14:06;20.30;99.90
49549;DHT22;35450;44.518;7.466;2023-05-29T13:17:10;20.40;99.90
49549;DHT22;35450;44.518;7.466;2023-05-29T13:20:15;20.50;99.90
49549;DHT22;35450;44.518;7.466;2023-05-29T13:23:20;20.60;99.90
49549;DHT22;35450;44.518;7.466;2023-05-29T13:26:25;20.70;99.90
49549;DHT22;35450;44.518;7.466;2023-05-29T13:29:29;20.80;99.90
49549;DHT22;35450;44.518;7.466;2023-05-29T13:32:33;20.90;99.90
49549;DHT22;35450;44.518;7.466;2023-05-29T13:35:37;20.90;99.90
49549;DHT22;35450;44.518;7.466;2023-05-29T13:38:41;20.90;99.90
49549;DHT22;35450;44.518;7.466;2023-05-29T13:41:46;20.80;99.90
49549;DHT22;35450;44.518;7.466;2023-05-29T13:44:50;20.80;99.90
49549;DHT22;35450;44.518;7.466;2023-05-29T13:47:55;20.80;99.90
49549;DHT22;35450;44.518;7.466;2023-05-29T13:50:59;20.80;99.90
49549;DHT22;35450;44.518;7.466;2023-05-29T13:54:03;20.90;99.90
49549;DHT22;35450;44.518;7.466;2023-05-29T13:57:07;20.90;99.90
49549;DHT22;35450;44.518;7.466;2023-05-29T14:00:12;21.00;99.90
49549;DHT22;35450;44.518;7.466;2023-05-29T14:03:16;20.90;99.90
49549;DHT22;35450;44.518;7.466;2023-05-29T14:06:21;20.90;99.90
49549;DHT22;35450;44.518;7.466;2023-05-29T14:09:25;21.00;99.90
49549;DHT22;35450;44.518;7.466;2023-05-29T14:12:32;21.00;99.90
49549;DHT22;35450;44.518;7.466;2023-05-29T14:15:36;21.10;99.00
49549;DHT22;35450;44.518;7.466;2023-05-29T14:18:40;21.10;98.10
49549;DHT22;35450;44.518;7.466;2023-05-29T14:21:45;21.10;98.50
49549;DHT22;35450;44.518;7.466;2023-05-29T14:24:50;21.20;98.30
49549;DHT22;35450;44.518;7.466;2023-05-29T14:27:54;21.30;98.60
49549;DHT22;35450;44.518;7.466;2023-05-29T14:30:58;21.20;97.60
49549;DHT22;35450;44.518;7.466;2023-05-29T14:34:02;21.30;97.30
49549;DHT22;35450;44.518;7.466;2023-05-29T14:37:06;21.30;96.80
49549;DHT22;35450;44.518;7.466;2023-05-29T14:40:10;21.30;96.40
49549;DHT22;35450;44.518;7.466;2023-05-29T14:43:15;21.40;96.20
49549;DHT22;35450;44.518;7.466;2023-05-29T14:46:19;21.40;95.70
49549;DHT22;35450;44.518;7.466;2023-05-29T14:49:23;21.50;95.80
49549;DHT22;35450;44.518;7.466;2023-05-29T14:52:27;21.50;96.10
49549;DHT22;35450;44.518;7.466;2023-05-29T14:55:31;21.60;95.60
49549;DHT22;35450;44.518;7.466;2023-05-29T14:58:41;21.70;95.70
49549;DHT22;35450;44.518;7.466;2023-05-29T15:01:45;21.70;95.20
49549;DHT22;35450;44.518;7.466;2023-05-29T15:04:49;21.70;95.20
49549;DHT22;35450;44.518;7.466;2023-05-29T15:07:53;21.70;95.40
49549;DHT22;35450;44.518;7.466;2023-05-29T15:11:03;21.70;95.10
49549;DHT22;35450;44.518;7.466;2023-05-29T15:14:07;21.80;95.80
49549;DHT22;35450;44.518;7.466;2023-05-29T15:17:11;21.80;94.60
49549;DHT22;35450;44.518;7.466;2023-05-29T15:20:15;21.90;93.90
49549;DHT22;35450;44.518;7.466;2023-05-29T15:23:22;22.00;94.20
49549;DHT22;35450;44.518;7.466;2023-05-29T15:26:26;22.10;93.10
49549;DHT22;35450;44.518;7.466;2023-05-29T15:29:33;22.10;93.50
49549;DHT22;35450;44.518;7.466;2023-05-29T15:32:39;22.20;93.90
49549;DHT22;35450;44.518;7.466;2023-05-29T15:35:44;22.20;93.80
49549;DHT22;35450;44.518;7.466;2023-05-29T15:38:50;22.30;94.10
49549;DHT22;35450;44.518;7.466;2023-05-29T15:41:54;22.30;93.80
49549;DHT22;35450;44.518;7.466;2023-05-29T15:44:58;22.30;93.20
49549;DHT22;35450;44.518;7.466;2023-05-29T15:48:03;22.50;93.20
49549;DHT22;35450;44.518;7.466;2023-05-29T15:51:07;22.60;93.10
49549;DHT22;35450;44.518;7.466;2023-05-29T15:54:11;22.70;93.30
49549;DHT22;35450;44.518;7.466;2023-05-29T15:57:15;22.70;93.20
49549;DHT22;35450;44.518;7.466;2023-05-29T16:00:19;22.80;93.10
49549;DHT22;35450;44.518;7.466;2023-05-29T16:03:23;22.80;92.90
49549;DHT22;35450;44.518;7.466;2023-05-29T16:06:27;22.90;93.10
49549;DHT22;35450;44.518;7.466;2023-05-29T16:09:31;22.90;92.50
49549;DHT22;35450;44.518;7.466;2023-05-29T16:12:35;22.90;92.30
49549;DHT22;35450;44.518;7.466;2023-05-29T16:15:40;23.00;91.80
49549;DHT22;35450;44.518;7.466;2023-05-29T16:18:44;23.00;92.00
49549;DHT22;35450;44.518;7.466;2023-05-29T16:21:48;23.00;92.00
49549;DHT22;35450;44.518;7.466;2023-05-29T16:24:52;23.00;92.10
49549;DHT22;35450;44.518;7.466;2023-05-29T16:27:56;23.10;92.00
49549;DHT22;35450;44.518;7.466;2023-05-29T16:31:00;23.10;92.20
49549;DHT22;35450;44.518;7.466;2023-05-29T16:34:04;23.20;92.00
49549;DHT22;35450;44.518;7.466;2023-05-29T16:37:09;23.20;91.70
49549;DHT22;35450;44.518;7.466;2023-05-29T16:40:13;23.20;91.50
49549;DHT22;35450;44.518;7.466;2023-05-29T16:43:17;23.40;91.30
49549;DHT22;35450;44.518;7.466;2023-05-29T16:46:21;23.50;91.10
49549;DHT22;35450;44.518;7.466;2023-05-29T16:49:25;23.80;90.90
49549;DHT22;35450;44.518;7.466;2023-05-29T16:52:29;24.40;90.70
49549;DHT22;35450;44.518;7.466;2023-05-29T16:55:33;25.50;89.20
49549;DHT22;35450;44.518;7.466;2023-05-29T16:58:37;26.50;86.00
49549;DHT22;35450;44.518;7.466;2023-05-29T17:01:42;26.80;84.70
49549;DHT22;35450;44.518;7.466;2023-05-29T17:04:46;26.50;83.90
49549;DHT22;35450;44.518;7.466;2023-05-29T17:07:50;26.00;84.10
49549;DHT22;35450;44.518;7.466;2023-05-29T17:10:54;25.50;87.90
49549;DHT22;35450;44.518;7.466;2023-05-29T17:13:58;24.80;91.20
49549;DHT22;35450;44.518;7.466;2023-05-29T17:17:02;24.40;91.40
49549;DHT22;35450;44.518;7.466;2023-05-29T17:20:06;24.30;91.70
49549;DHT22;35450;44.518;7.466;2023-05-29T17:23:10;24.00;93.20
49549;DHT22;35450;44.518;7.466;2023-05-29T17:26:14;23.70;93.80
49549;DHT22;35450;44.518;7.466;2023-05-29T17:29:18;23.50;94.00
49549;DHT22;35450;44.518;7.466;2023-05-29T17:32:23;23.70;93.50
49549;DHT22;35450;44.518;7.466;2023-05-29T17:35:27;23.70;93.60
49549;DHT22;35450;44.518;7.466;2023-05-29T17:38:31;23.70;93.70
49549;DHT22;35450;44.518;7.466;2023-05-29T17:41:35;23.60;93.90
49549;DHT22;35450;44.518;7.466;2023-05-29T17:44:39;23.50;93.70
49549;DHT22;35450;44.518;7.466;2023-05-29T17:47:44;23.40;93.80
49549;DHT22;35450;44.518;7.466;2023-05-29T17:50:47;23.30;93.90
49549;DHT22;35450;44.518;7.466;2023-05-29T17:53:51;23.20;94.30
49549;DHT22;35450;44.518;7.466;2023-05-29T17:56:55;23.10;94.80
49549;DHT22;35450;44.518;7.466;2023-05-29T17:59:59;22.90;94.50
49549;DHT22;35450;44.518;7.466;2023-05-29T18:03:04;22.70;95.10
49549;DHT22;35450;44.518;7.466;2023-05-29T18:06:09;22.50;95.50
49549;DHT22;35450;44.518;7.466;2023-05-29T18:09:13;22.40;95.40
49549;DHT22;35450;44.518;7.466;2023-05-29T18:12:17;22.00;95.70
49549;DHT22;35450;44.518;7.466;2023-05-29T18:15:21;21.70;96.20
49549;DHT22;35450;44.518;7.466;2023-05-29T18:18:26;21.70;96.30
49549;DHT22;35450;44.518;7.466;2023-05-29T18:21:30;21.60;95.90
49549;DHT22;35450;44.518;7.466;2023-05-29T18:24:34;21.50;95.80
49549;DHT22;35450;44.518;7.466;2023-05-29T18:27:39;21.50;95.60
49549;DHT22;35450;44.518;7.466;2023-05-29T18:30:43;21.30;96.20
49549;DHT22;35450;44.518;7.466;2023-05-29T18:33:47;21.10;96.60
49549;DHT22;35450;44.518;7.466;2023-05-29T18:36:52;20.90;96.90
49549;DHT22;35450;44.518;7.466;2023-05-29T18:39:57;20.90;97.20
49549;DHT22;35450;44.518;7.466;2023-05-29T18:43:01;21.00;96.60
49549;DHT22;35450;44.518;7.466;2023-05-29T18:46:05;21.00;96.40
49549;DHT22;35450;44.518;7.466;2023-05-29T18:49:08;20.90;96.40
49549;DHT22;35450;44.518;7.466;2023-05-29T18:52:14;20.70;96.50
49549;DHT22;35450;44.518;7.466;2023-05-29T18:55:18;20.70;96.40
49549;DHT22;35450;44.518;7.466;2023-05-29T18:58:22;20.70;96.50
49549;DHT22;35450;44.518;7.466;2023-05-29T19:01:26;20.60;96.50
49549;DHT22;35450;44.518;7.466;2023-05-29T19:04:30;20.50;96.60
49549;DHT22;35450;44.518;7.466;2023-05-29T19:07:34;20.50;96.70
49549;DHT22;35450;44.518;7.466;2023-05-29T19:10:39;20.40;96.80
49549;DHT22;35450;44.518;7.466;2023-05-29T19:13:44;20.30;96.80
49549;DHT22;35450;44.518;7.466;2023-05-29T19:16:51;20.40;97.00
49549;DHT22;35450;44.518;7.466;2023-05-29T19:19:55;20.30;97.10
49549;DHT22;35450;44.518;7.466;2023-05-29T19:22:59;20.30;96.90
49549;DHT22;35450;44.518;7.466;2023-05-29T19:26:04;20.20;97.00
49549;DHT22;35450;44.518;7.466;2023-05-29T19:29:09;20.10;97.20
49549;DHT22;35450;44.518;7.466;2023-05-29T19:32:13;20.00;97.20
49549;DHT22;35450;44.518;7.466;2023-05-29T19:35:21;19.90;97.40
49549;DHT22;35450;44.518;7.466;2023-05-29T19:38:25;19.90;97.40
49549;DHT22;35450;44.518;7.466;2023-05-29T19:41:29;19.90;97.40
49549;DHT22;35450;44.518;7.466;2023-05-29T19:44:33;19.90;97.40
49549;DHT22;35450;44.518;7.466;2023-05-29T19:47:37;19.80;97.40
49549;DHT22;35450;44.518;7.466;2023-05-29T19:50:41;19.70;97.50